Main page
METAR-TAF:

METAR-TAF

Airports :

Guaymas International Airport

Guaymas, Mexico

latitude: 27-58N, longitude: 110-56W, elevation: 27 m

Current weather observation

The report was made 10 hours and 17 minutes ago, at 01:47 UTC
Calm wind
Temperature 21°C
Humidity 69%
Pressure 1016 hPa
Visibility: 16.1 km
Scattered clouds at a height of 10000 ft
Broken clouds at a height of 20000 ft

METAR: MMGM 220147Z 00000KT 10SM SCT100 BKN200 21/15 A2999 RMK 8/061

Time: 05:04 (12:04 UTC)

Forecast

The report was made 7 hours and 46 minutes ago, at 04:18 UTC
Forecast valid from 22 at 06 UTC to 23 at 06 UTC
Wind 5 kt from the West/Northwest
Visibility: 10 km
Scattered clouds at a height of 10000 ft
Broken clouds at a height of 20000 ft
Becoming
from 22 at 19 UTC to 22 at 20 UTC
Wind 10 kt from the West/Northwest
Becoming
from 23 at 02 UTC to 23 at 03 UTC
Wind 5 kt from the West/Northwest

TAF: MMGM 220418Z 2206/2306 29005KT P6SM SCT100 BKN200 BECMG 2219/2220 29010KT BECMG 2302/2303 29005KT

Weather observations and forecasts of more than 4000 airports (METAR and TAF reports).

The available stations are represented by yellow and red dots on the map.

Hover mouse over dot to see the name of the station.

Then click to see weather observations and forecasts.

To change the map : click on the green buttons with a black cross to zoom in, on the green button with a dash to zoom out, or on the green arrows for adjacent maps.


METAR-TAF: